sensor_id;sensor_type;location;lat;lon;timestamp;P1;durP1;ratioP1;P2;durP2;ratioP2
11827;SDS011;5971;49.646;8.568;2023-06-19T00:02:26;9.07;;;6.40;;
11827;SDS011;5971;49.646;8.568;2023-06-19T00:05:28;9.48;;;6.95;;
11827;SDS011;5971;49.646;8.568;2023-06-19T00:08:29;8.57;;;6.20;;
11827;SDS011;5971;49.646;8.568;2023-06-19T00:11:31;10.20;;;6.63;;
11827;SDS011;5971;49.646;8.568;2023-06-19T00:14:32;9.88;;;6.28;;
11827;SDS011;5971;49.646;8.568;2023-06-19T00:17:34;8.55;;;6.45;;
11827;SDS011;5971;49.646;8.568;2023-06-19T00:20:38;10.30;;;6.93;;
11827;SDS011;5971;49.646;8.568;2023-06-19T00:23:40;9.40;;;6.57;;
11827;SDS011;5971;49.646;8.568;2023-06-19T00:26:42;11.20;;;6.72;;
11827;SDS011;5971;49.646;8.568;2023-06-19T00:29:44;7.95;;;6.38;;
11827;SDS011;5971;49.646;8.568;2023-06-19T00:32:45;9.25;;;6.50;;
11827;SDS011;5971;49.646;8.568;2023-06-19T00:35:51;9.57;;;6.68;;
11827;SDS011;5971;49.646;8.568;2023-06-19T00:38:53;9.95;;;6.80;;
11827;SDS011;5971;49.646;8.568;2023-06-19T00:41:54;10.68;;;7.07;;
11827;SDS011;5971;49.646;8.568;2023-06-19T00:44:56;8.43;;;6.65;;
11827;SDS011;5971;49.646;8.568;2023-06-19T00:47:57;9.20;;;6.45;;
11827;SDS011;5971;49.646;8.568;2023-06-19T00:50:59;9.00;;;6.25;;
11827;SDS011;5971;49.646;8.568;2023-06-19T00:54:01;10.35;;;7.70;;
11827;SDS011;5971;49.646;8.568;2023-06-19T00:57:02;9.10;;;6.40;;
11827;SDS011;5971;49.646;8.568;2023-06-19T01:00:04;9.20;;;6.35;;
11827;SDS011;5971;49.646;8.568;2023-06-19T01:03:06;9.25;;;5.70;;
11827;SDS011;5971;49.646;8.568;2023-06-19T01:06:10;7.82;;;5.90;;
11827;SDS011;5971;49.646;8.568;2023-06-19T01:09:15;11.13;;;6.03;;
11827;SDS011;5971;49.646;8.568;2023-06-19T01:12:22;9.93;;;6.25;;
11827;SDS011;5971;49.646;8.568;2023-06-19T01:15:25;8.68;;;6.18;;
11827;SDS011;5971;49.646;8.568;2023-06-19T01:18:26;8.55;;;5.95;;
11827;SDS011;5971;49.646;8.568;2023-06-19T01:21:28;10.05;;;6.43;;
11827;SDS011;5971;49.646;8.568;2023-06-19T01:24:29;9.07;;;6.38;;
11827;SDS011;5971;49.646;8.568;2023-06-19T01:27:31;10.18;;;6.57;;
11827;SDS011;5971;49.646;8.568;2023-06-19T01:30:33;9.38;;;6.50;;
11827;SDS011;5971;49.646;8.568;2023-06-19T01:33:35;11.00;;;6.43;;
11827;SDS011;5971;49.646;8.568;2023-06-19T01:36:37;9.88;;;6.53;;
11827;SDS011;5971;49.646;8.568;2023-06-19T01:39:39;9.07;;;6.55;;
11827;SDS011;5971;49.646;8.568;2023-06-19T01:42:41;8.75;;;6.45;;
11827;SDS011;5971;49.646;8.568;2023-06-19T01:45:43;10.23;;;6.50;;
11827;SDS011;5971;49.646;8.568;2023-06-19T01:48:44;10.88;;;7.18;;
11827;SDS011;5971;49.646;8.568;2023-06-19T01:51:45;9.13;;;7.05;;
11827;SDS011;5971;49.646;8.568;2023-06-19T01:54:47;8.75;;;6.85;;
11827;SDS011;5971;49.646;8.568;2023-06-19T01:57:48;10.80;;;6.85;;
11827;SDS011;5971;49.646;8.568;2023-06-19T02:00:50;11.10;;;7.13;;
11827;SDS011;5971;49.646;8.568;2023-06-19T02:03:51;10.13;;;7.13;;
11827;SDS011;5971;49.646;8.568;2023-06-19T02:06:53;10.13;;;7.47;;
11827;SDS011;5971;49.646;8.568;2023-06-19T02:09:54;12.10;;;7.10;;
11827;SDS011;5971;49.646;8.568;2023-06-19T02:12:55;11.68;;;7.32;;
11827;SDS011;5971;49.646;8.568;2023-06-19T02:15:57;11.65;;;7.32;;
11827;SDS011;5971;49.646;8.568;2023-06-19T02:18:58;11.10;;;8.20;;
11827;SDS011;5971;49.646;8.568;2023-06-19T02:22:01;10.60;;;7.50;;
11827;SDS011;5971;49.646;8.568;2023-06-19T02:25:02;10.93;;;7.80;;
11827;SDS011;5971;49.646;8.568;2023-06-19T02:28:04;10.20;;;7.32;;
11827;SDS011;5971;49.646;8.568;2023-06-19T02:31:05;10.07;;;7.40;;
11827;SDS011;5971;49.646;8.568;2023-06-19T02:34:07;10.30;;;7.00;;
11827;SDS011;5971;49.646;8.568;2023-06-19T02:37:08;9.68;;;7.07;;
11827;SDS011;5971;49.646;8.568;2023-06-19T02:40:09;10.70;;;7.68;;
11827;SDS011;5971;49.646;8.568;2023-06-19T02:43:11;12.85;;;7.55;;
11827;SDS011;5971;49.646;8.568;2023-06-19T02:46:13;11.13;;;7.88;;
11827;SDS011;5971;49.646;8.568;2023-06-19T02:49:14;10.15;;;7.53;;
11827;SDS011;5971;49.646;8.568;2023-06-19T02:52:16;12.43;;;7.72;;
11827;SDS011;5971;49.646;8.568;2023-06-19T02:55:17;11.18;;;7.65;;
11827;SDS011;5971;49.646;8.568;2023-06-19T02:58:18;10.50;;;7.82;;
11827;SDS011;5971;49.646;8.568;2023-06-19T03:01:20;10.90;;;7.60;;
11827;SDS011;5971;49.646;8.568;2023-06-19T03:04:21;11.15;;;7.57;;
11827;SDS011;5971;49.646;8.568;2023-06-19T03:07:26;11.95;;;7.90;;
11827;SDS011;5971;49.646;8.568;2023-06-19T03:10:29;10.93;;;7.57;;
11827;SDS011;5971;49.646;8.568;2023-06-19T03:13:43;9.73;;;6.93;;
11827;SDS011;5971;49.646;8.568;2023-06-19T03:16:45;10.07;;;6.90;;
11827;SDS011;5971;49.646;8.568;2023-06-19T03:19:46;9.98;;;7.22;;
11827;SDS011;5971;49.646;8.568;2023-06-19T03:22:47;9.73;;;7.13;;
11827;SDS011;5971;49.646;8.568;2023-06-19T03:25:49;9.65;;;7.22;;
11827;SDS011;5971;49.646;8.568;2023-06-19T03:28:50;11.68;;;7.20;;
11827;SDS011;5971;49.646;8.568;2023-06-19T03:31:51;10.20;;;7.13;;
11827;SDS011;5971;49.646;8.568;2023-06-19T03:34:53;9.00;;;6.68;;
11827;SDS011;5971;49.646;8.568;2023-06-19T03:37:54;8.93;;;6.55;;
11827;SDS011;5971;49.646;8.568;2023-06-19T03:40:55;9.52;;;6.30;;
11827;SDS011;5971;49.646;8.568;2023-06-19T03:43:57;8.40;;;5.85;;
11827;SDS011;5971;49.646;8.568;2023-06-19T03:46:58;9.00;;;5.82;;
11827;SDS011;5971;49.646;8.568;2023-06-19T03:49:59;7.43;;;5.32;;
11827;SDS011;5971;49.646;8.568;2023-06-19T03:53:20;6.65;;;5.07;;
11827;SDS011;5971;49.646;8.568;2023-06-19T03:56:21;7.72;;;4.85;;
11827;SDS011;5971;49.646;8.568;2023-06-19T03:59:23;7.03;;;4.97;;
11827;SDS011;5971;49.646;8.568;2023-06-19T04:02:24;6.00;;;4.30;;
11827;SDS011;5971;49.646;8.568;2023-06-19T04:05:26;8.68;;;4.72;;
11827;SDS011;5971;49.646;8.568;2023-06-19T04:08:27;6.63;;;4.22;;
11827;SDS011;5971;49.646;8.568;2023-06-19T04:11:29;6.47;;;3.97;;
11827;SDS011;5971;49.646;8.568;2023-06-19T04:14:30;5.68;;;4.00;;
11827;SDS011;5971;49.646;8.568;2023-06-19T04:17:32;6.60;;;3.97;;
11827;SDS011;5971;49.646;8.568;2023-06-19T04:20:33;6.38;;;3.92;;
11827;SDS011;5971;49.646;8.568;2023-06-19T04:23:35;7.35;;;5.07;;
11827;SDS011;5971;49.646;8.568;2023-06-19T04:26:36;7.28;;;3.75;;
11827;SDS011;5971;49.646;8.568;2023-06-19T04:29:38;5.55;;;3.65;;
11827;SDS011;5971;49.646;8.568;2023-06-19T04:32:39;6.07;;;3.88;;
11827;SDS011;5971;49.646;8.568;2023-06-19T04:35:42;5.75;;;3.97;;
11827;SDS011;5971;49.646;8.568;2023-06-19T04:38:44;5.70;;;3.65;;
11827;SDS011;5971;49.646;8.568;2023-06-19T04:41:47;6.25;;;3.90;;
11827;SDS011;5971;49.646;8.568;2023-06-19T04:44:49;5.35;;;3.33;;
11827;SDS011;5971;49.646;8.568;2023-06-19T04:47:50;6.15;;;3.20;;
11827;SDS011;5971;49.646;8.568;2023-06-19T04:50:54;5.88;;;3.05;;
11827;SDS011;5971;49.646;8.568;2023-06-19T04:53:57;4.65;;;3.17;;
11827;SDS011;5971;49.646;8.568;2023-06-19T04:56:58;5.47;;;3.22;;
11827;SDS011;5971;49.646;8.568;2023-06-19T05:00:00;5.60;;;3.17;;
11827;SDS011;5971;49.646;8.568;2023-06-19T05:03:01;6.18;;;2.83;;
11827;SDS011;5971;49.646;8.568;2023-06-19T05:06:03;5.30;;;2.80;;
11827;SDS011;5971;49.646;8.568;2023-06-19T05:09:05;4.28;;;2.92;;
11827;SDS011;5971;49.646;8.568;2023-06-19T05:12:06;4.45;;;2.55;;
11827;SDS011;5971;49.646;8.568;2023-06-19T05:15:08;4.28;;;2.50;;
11827;SDS011;5971;49.646;8.568;2023-06-19T05:18:09;4.10;;;2.78;;
11827;SDS011;5971;49.646;8.568;2023-06-19T05:21:10;4.53;;;3.00;;
11827;SDS011;5971;49.646;8.568;2023-06-19T05:24:12;5.38;;;2.75;;
11827;SDS011;5971;49.646;8.568;2023-06-19T05:27:13;3.88;;;2.40;;
11827;SDS011;5971;49.646;8.568;2023-06-19T05:30:15;5.13;;;2.85;;
11827;SDS011;5971;49.646;8.568;2023-06-19T05:33:16;6.93;;;2.92;;
11827;SDS011;5971;49.646;8.568;2023-06-19T05:36:18;4.78;;;2.92;;
11827;SDS011;5971;49.646;8.568;2023-06-19T05:39:19;4.80;;;3.20;;
11827;SDS011;5971;49.646;8.568;2023-06-19T05:42:21;4.30;;;2.72;;
11827;SDS011;5971;49.646;8.568;2023-06-19T05:45:22;4.47;;;2.60;;
11827;SDS011;5971;49.646;8.568;2023-06-19T05:48:23;7.45;;;2.80;;
11827;SDS011;5971;49.646;8.568;2023-06-19T05:51:26;4.95;;;2.47;;
11827;SDS011;5971;49.646;8.568;2023-06-19T05:54:27;4.22;;;2.88;;
11827;SDS011;5971;49.646;8.568;2023-06-19T05:57:29;5.38;;;2.63;;
11827;SDS011;5971;49.646;8.568;2023-06-19T06:00:30;5.93;;;2.92;;
11827;SDS011;5971;49.646;8.568;2023-06-19T06:03:33;4.10;;;2.53;;
11827;SDS011;5971;49.646;8.568;2023-06-19T06:06:34;5.60;;;2.67;;
11827;SDS011;5971;49.646;8.568;2023-06-19T06:09:36;3.63;;;2.25;;
11827;SDS011;5971;49.646;8.568;2023-06-19T06:12:37;4.53;;;2.50;;
11827;SDS011;5971;49.646;8.568;2023-06-19T06:15:39;3.72;;;2.30;;
11827;SDS011;5971;49.646;8.568;2023-06-19T06:18:40;4.28;;;2.38;;
11827;SDS011;5971;49.646;8.568;2023-06-19T06:21:41;4.22;;;2.53;;
11827;SDS011;5971;49.646;8.568;2023-06-19T06:24:43;5.55;;;3.20;;
11827;SDS011;5971;49.646;8.568;2023-06-19T06:27:44;4.82;;;3.17;;
11827;SDS011;5971;49.646;8.568;2023-06-19T06:30:46;4.50;;;3.13;;
11827;SDS011;5971;49.646;8.568;2023-06-19T06:33:48;4.93;;;3.13;;
11827;SDS011;5971;49.646;8.568;2023-06-19T06:36:49;4.43;;;3.17;;
11827;SDS011;5971;49.646;8.568;2023-06-19T06:40:08;5.45;;;3.53;;
11827;SDS011;5971;49.646;8.568;2023-06-19T06:43:12;5.38;;;3.53;;
11827;SDS011;5971;49.646;8.568;2023-06-19T06:46:14;6.50;;;3.13;;
11827;SDS011;5971;49.646;8.568;2023-06-19T06:49:15;5.97;;;3.47;;
11827;SDS011;5971;49.646;8.568;2023-06-19T06:52:18;6.53;;;3.85;;
11827;SDS011;5971;49.646;8.568;2023-06-19T06:55:19;4.80;;;3.22;;
11827;SDS011;5971;49.646;8.568;2023-06-19T06:58:20;5.22;;;3.60;;
11827;SDS011;5971;49.646;8.568;2023-06-19T07:01:22;5.53;;;3.63;;
11827;SDS011;5971;49.646;8.568;2023-06-19T07:04:23;4.45;;;3.30;;
11827;SDS011;5971;49.646;8.568;2023-06-19T07:07:25;6.78;;;3.80;;
11827;SDS011;5971;49.646;8.568;2023-06-19T07:10:26;5.55;;;3.20;;
11827;SDS011;5971;49.646;8.568;2023-06-19T07:13:30;5.35;;;3.33;;
11827;SDS011;5971;49.646;8.568;2023-06-19T07:16:31;5.25;;;3.22;;
11827;SDS011;5971;49.646;8.568;2023-06-19T07:19:33;4.57;;;3.42;;
11827;SDS011;5971;49.646;8.568;2023-06-19T07:22:34;6.35;;;3.58;;
11827;SDS011;5971;49.646;8.568;2023-06-19T07:25:36;6.18;;;3.40;;
11827;SDS011;5971;49.646;8.568;2023-06-19T07:28:37;5.03;;;3.50;;
11827;SDS011;5971;49.646;8.568;2023-06-19T07:31:38;6.93;;;3.92;;
11827;SDS011;5971;49.646;8.568;2023-06-19T07:34:40;5.43;;;3.53;;
11827;SDS011;5971;49.646;8.568;2023-06-19T07:37:41;4.75;;;3.65;;
11827;SDS011;5971;49.646;8.568;2023-06-19T07:40:43;4.50;;;3.22;;
11827;SDS011;5971;49.646;8.568;2023-06-19T07:43:44;4.97;;;3.45;;
11827;SDS011;5971;49.646;8.568;2023-06-19T07:46:45;4.32;;;3.08;;
11827;SDS011;5971;49.646;8.568;2023-06-19T07:49:47;6.03;;;3.60;;
11827;SDS011;5971;49.646;8.568;2023-06-19T07:52:48;6.95;;;3.67;;
11827;SDS011;5971;49.646;8.568;2023-06-19T07:55:49;5.43;;;3.65;;
11827;SDS011;5971;49.646;8.568;2023-06-19T07:58:51;4.50;;;3.42;;
11827;SDS011;5971;49.646;8.568;2023-06-19T08:01:52;6.35;;;3.20;;
11827;SDS011;5971;49.646;8.568;2023-06-19T08:04:54;6.35;;;3.80;;
11827;SDS011;5971;49.646;8.568;2023-06-19T08:07:56;5.47;;;3.55;;
11827;SDS011;5971;49.646;8.568;2023-06-19T08:10:59;5.30;;;3.35;;
11827;SDS011;5971;49.646;8.568;2023-06-19T08:14:00;8.02;;;3.78;;
11827;SDS011;5971;49.646;8.568;2023-06-19T08:17:02;5.40;;;3.50;;
11827;SDS011;5971;49.646;8.568;2023-06-19T08:20:03;5.10;;;3.58;;
11827;SDS011;5971;49.646;8.568;2023-06-19T08:23:06;5.78;;;3.65;;
11827;SDS011;5971;49.646;8.568;2023-06-19T08:26:07;5.63;;;4.03;;
11827;SDS011;5971;49.646;8.568;2023-06-19T08:29:09;6.38;;;4.25;;
11827;SDS011;5971;49.646;8.568;2023-06-19T08:32:11;4.72;;;3.50;;
11827;SDS011;5971;49.646;8.568;2023-06-19T08:35:12;5.10;;;3.72;;
11827;SDS011;5971;49.646;8.568;2023-06-19T08:38:13;4.90;;;3.35;;
11827;SDS011;5971;49.646;8.568;2023-06-19T08:41:18;5.30;;;4.00;;
11827;SDS011;5971;49.646;8.568;2023-06-19T08:44:20;6.15;;;4.03;;
11827;SDS011;5971;49.646;8.568;2023-06-19T08:47:21;8.93;;;4.45;;
11827;SDS011;5971;49.646;8.568;2023-06-19T08:50:23;5.20;;;3.63;;
11827;SDS011;5971;49.646;8.568;2023-06-19T08:53:25;5.57;;;3.92;;
11827;SDS011;5971;49.646;8.568;2023-06-19T08:56:26;4.95;;;3.60;;
11827;SDS011;5971;49.646;8.568;2023-06-19T08:59:27;6.75;;;4.00;;
11827;SDS011;5971;49.646;8.568;2023-06-19T09:02:39;5.53;;;4.00;;
11827;SDS011;5971;49.646;8.568;2023-06-19T09:05:41;5.25;;;3.58;;
11827;SDS011;5971;49.646;8.568;2023-06-19T09:08:58;6.28;;;4.00;;
11827;SDS011;5971;49.646;8.568;2023-06-19T09:12:02;6.43;;;4.05;;
11827;SDS011;5971;49.646;8.568;2023-06-19T09:15:10;6.43;;;4.20;;
11827;SDS011;5971;49.646;8.568;2023-06-19T09:18:12;8.27;;;5.22;;
11827;SDS011;5971;49.646;8.568;2023-06-19T09:24:19;7.50;;;4.47;;
11827;SDS011;5971;49.646;8.568;2023-06-19T09:27:21;7.53;;;4.93;;
11827;SDS011;5971;49.646;8.568;2023-06-19T09:30:22;8.60;;;5.07;;
11827;SDS011;5971;49.646;8.568;2023-06-19T09:33:25;6.20;;;4.38;;
11827;SDS011;5971;49.646;8.568;2023-06-19T09:36:27;7.57;;;4.70;;
11827;SDS011;5971;49.646;8.568;2023-06-19T09:39:28;6.15;;;4.80;;
11827;SDS011;5971;49.646;8.568;2023-06-19T09:42:31;6.97;;;4.70;;
11827;SDS011;5971;49.646;8.568;2023-06-19T09:45:32;6.80;;;5.00;;
11827;SDS011;5971;49.646;8.568;2023-06-19T09:48:35;6.65;;;4.95;;
11827;SDS011;5971;49.646;8.568;2023-06-19T09:51:41;6.47;;;4.95;;
11827;SDS011;5971;49.646;8.568;2023-06-19T09:54:43;7.20;;;4.63;;
11827;SDS011;5971;49.646;8.568;2023-06-19T09:57:44;6.35;;;4.82;;
11827;SDS011;5971;49.646;8.568;2023-06-19T10:00:46;6.18;;;4.80;;
11827;SDS011;5971;49.646;8.568;2023-06-19T10:03:48;7.50;;;4.60;;
11827;SDS011;5971;49.646;8.568;2023-06-19T10:06:50;5.85;;;4.43;;
11827;SDS011;5971;49.646;8.568;2023-06-19T10:10:05;9.32;;;5.05;;
11827;SDS011;5971;49.646;8.568;2023-06-19T10:13:13;7.50;;;4.82;;
11827;SDS011;5971;49.646;8.568;2023-06-19T10:16:22;5.38;;;4.25;;
11827;SDS011;5971;49.646;8.568;2023-06-19T10:19:23;5.53;;;4.30;;
11827;SDS011;5971;49.646;8.568;2023-06-19T10:22:29;5.30;;;4.13;;
11827;SDS011;5971;49.646;8.568;2023-06-19T10:25:32;6.53;;;4.05;;
11827;SDS011;5971;49.646;8.568;2023-06-19T10:28:33;6.05;;;4.13;;
11827;SDS011;5971;49.646;8.568;2023-06-19T10:31:35;5.20;;;4.18;;
11827;SDS011;5971;49.646;8.568;2023-06-19T10:34:37;5.78;;;3.83;;
11827;SDS011;5971;49.646;8.568;2023-06-19T10:37:38;6.72;;;4.50;;
11827;SDS011;5971;49.646;8.568;2023-06-19T10:40:40;6.75;;;4.03;;
11827;SDS011;5971;49.646;8.568;2023-06-19T10:43:41;4.65;;;3.78;;
11827;SDS011;5971;49.646;8.568;2023-06-19T10:46:42;7.95;;;3.80;;
11827;SDS011;5971;49.646;8.568;2023-06-19T10:49:44;5.25;;;3.60;;
11827;SDS011;5971;49.646;8.568;2023-06-19T10:52:45;5.43;;;3.67;;
11827;SDS011;5971;49.646;8.568;2023-06-19T10:55:47;4.53;;;3.72;;
11827;SDS011;5971;49.646;8.568;2023-06-19T10:58:48;5.38;;;4.10;;
11827;SDS011;5971;49.646;8.568;2023-06-19T11:01:50;5.47;;;3.83;;
11827;SDS011;5971;49.646;8.568;2023-06-19T11:04:52;5.00;;;3.78;;
11827;SDS011;5971;49.646;8.568;2023-06-19T11:07:55;5.88;;;4.22;;
11827;SDS011;5971;49.646;8.568;2023-06-19T11:10:56;5.03;;;3.47;;
11827;SDS011;5971;49.646;8.568;2023-06-19T11:13:58;4.60;;;3.13;;
11827;SDS011;5971;49.646;8.568;2023-06-19T11:16:59;4.75;;;3.75;;
11827;SDS011;5971;49.646;8.568;2023-06-19T11:20:01;4.82;;;3.47;;
11827;SDS011;5971;49.646;8.568;2023-06-19T11:23:02;4.93;;;3.65;;
11827;SDS011;5971;49.646;8.568;2023-06-19T11:26:04;4.70;;;3.60;;
11827;SDS011;5971;49.646;8.568;2023-06-19T11:32:59;4.32;;;3.67;;
11827;SDS011;5971;49.646;8.568;2023-06-19T11:35:54;5.18;;;3.88;;
11827;SDS011;5971;49.646;8.568;2023-06-19T11:38:58;4.72;;;3.58;;
11827;SDS011;5971;49.646;8.568;2023-06-19T11:42:00;4.88;;;3.00;;
11827;SDS011;5971;49.646;8.568;2023-06-19T11:45:02;3.80;;;2.95;;
11827;SDS011;5971;49.646;8.568;2023-06-19T11:48:06;4.40;;;3.00;;
11827;SDS011;5971;49.646;8.568;2023-06-19T11:51:07;3.80;;;3.10;;
11827;SDS011;5971;49.646;8.568;2023-06-19T11:54:10;3.90;;;3.03;;
11827;SDS011;5971;49.646;8.568;2023-06-19T11:57:11;3.72;;;3.00;;
11827;SDS011;5971;49.646;8.568;2023-06-19T12:00:14;3.88;;;3.22;;
11827;SDS011;5971;49.646;8.568;2023-06-19T12:03:16;4.85;;;2.95;;
11827;SDS011;5971;49.646;8.568;2023-06-19T12:06:17;5.10;;;3.03;;
11827;SDS011;5971;49.646;8.568;2023-06-19T12:09:19;4.50;;;3.63;;
11827;SDS011;5971;49.646;8.568;2023-06-19T12:12:20;4.55;;;3.10;;
11827;SDS011;5971;49.646;8.568;2023-06-19T12:15:22;4.63;;;3.47;;
11827;SDS011;5971;49.646;8.568;2023-06-19T12:18:23;4.30;;;2.92;;
11827;SDS011;5971;49.646;8.568;2023-06-19T12:21:24;3.88;;;2.80;;
11827;SDS011;5971;49.646;8.568;2023-06-19T12:24:38;4.72;;;2.70;;
11827;SDS011;5971;49.646;8.568;2023-06-19T12:27:40;5.63;;;3.15;;
11827;SDS011;5971;49.646;8.568;2023-06-19T12:30:42;3.30;;;2.53;;
11827;SDS011;5971;49.646;8.568;2023-06-19T12:33:44;4.10;;;2.78;;
11827;SDS011;5971;49.646;8.568;2023-06-19T12:36:46;5.55;;;2.97;;
11827;SDS011;5971;49.646;8.568;2023-06-19T12:39:47;4.28;;;3.33;;
11827;SDS011;5971;49.646;8.568;2023-06-19T12:42:49;4.53;;;3.30;;
11827;SDS011;5971;49.646;8.568;2023-06-19T12:45:51;5.20;;;3.10;;
11827;SDS011;5971;49.646;8.568;2023-06-19T12:48:53;3.60;;;2.65;;
11827;SDS011;5971;49.646;8.568;2023-06-19T12:51:54;4.03;;;3.00;;
11827;SDS011;5971;49.646;8.568;2023-06-19T12:54:55;3.80;;;3.13;;
11827;SDS011;5971;49.646;8.568;2023-06-19T12:57:57;3.78;;;2.92;;
11827;SDS011;5971;49.646;8.568;2023-06-19T13:00:58;3.92;;;2.67;;
11827;SDS011;5971;49.646;8.568;2023-06-19T13:03:59;3.90;;;2.83;;
11827;SDS011;5971;49.646;8.568;2023-06-19T13:07:01;3.83;;;3.22;;
11827;SDS011;5971;49.646;8.568;2023-06-19T13:10:03;3.85;;;2.90;;
11827;SDS011;5971;49.646;8.568;2023-06-19T13:13:04;3.83;;;2.92;;
11827;SDS011;5971;49.646;8.568;2023-06-19T13:16:06;3.90;;;3.13;;
11827;SDS011;5971;49.646;8.568;2023-06-19T13:19:08;3.65;;;2.92;;
11827;SDS011;5971;49.646;8.568;2023-06-19T13:22:09;3.97;;;3.00;;
11827;SDS011;5971;49.646;8.568;2023-06-19T13:25:10;3.70;;;2.88;;
11827;SDS011;5971;49.646;8.568;2023-06-19T13:28:12;4.07;;;3.22;;
11827;SDS011;5971;49.646;8.568;2023-06-19T13:31:13;4.38;;;2.88;;
11827;SDS011;5971;49.646;8.568;2023-06-19T13:34:14;5.22;;;3.15;;
11827;SDS011;5971;49.646;8.568;2023-06-19T13:37:17;3.45;;;2.92;;
11827;SDS011;5971;49.646;8.568;2023-06-19T13:40:18;5.03;;;3.03;;
11827;SDS011;5971;49.646;8.568;2023-06-19T13:43:19;4.07;;;2.85;;
11827;SDS011;5971;49.646;8.568;2023-06-19T13:46:24;3.95;;;2.92;;
11827;SDS011;5971;49.646;8.568;2023-06-19T13:49:25;5.05;;;2.97;;
11827;SDS011;5971;49.646;8.568;2023-06-19T13:52:27;3.95;;;2.78;;
11827;SDS011;5971;49.646;8.568;2023-06-19T13:55:29;4.80;;;3.20;;
11827;SDS011;5971;49.646;8.568;2023-06-19T13:58:30;4.40;;;3.20;;
11827;SDS011;5971;49.646;8.568;2023-06-19T14:01:31;4.78;;;3.60;;
11827;SDS011;5971;49.646;8.568;2023-06-19T14:04:33;4.82;;;3.60;;
11827;SDS011;5971;49.646;8.568;2023-06-19T14:07:35;4.53;;;3.78;;
11827;SDS011;5971;49.646;8.568;2023-06-19T14:10:36;4.60;;;3.90;;
11827;SDS011;5971;49.646;8.568;2023-06-19T14:13:38;4.50;;;3.67;;
11827;SDS011;5971;49.646;8.568;2023-06-19T14:16:39;5.28;;;3.75;;
11827;SDS011;5971;49.646;8.568;2023-06-19T14:19:41;5.07;;;3.60;;
11827;SDS011;5971;49.646;8.568;2023-06-19T14:22:42;4.75;;;3.53;;
11827;SDS011;5971;49.646;8.568;2023-06-19T14:25:43;7.10;;;4.25;;
11827;SDS011;5971;49.646;8.568;2023-06-19T14:28:45;4.53;;;3.72;;
11827;SDS011;5971;49.646;8.568;2023-06-19T14:31:46;4.75;;;3.80;;
11827;SDS011;5971;49.646;8.568;2023-06-19T14:34:48;4.57;;;3.72;;
11827;SDS011;5971;49.646;8.568;2023-06-19T14:37:49;4.75;;;3.42;;
11827;SDS011;5971;49.646;8.568;2023-06-19T14:40:50;4.72;;;3.47;;
11827;SDS011;5971;49.646;8.568;2023-06-19T14:43:52;4.82;;;3.10;;
11827;SDS011;5971;49.646;8.568;2023-06-19T14:46:53;4.18;;;3.10;;
11827;SDS011;5971;49.646;8.568;2023-06-19T14:49:55;4.00;;;3.35;;
11827;SDS011;5971;49.646;8.568;2023-06-19T14:52:56;3.97;;;3.30;;
11827;SDS011;5971;49.646;8.568;2023-06-19T14:55:57;4.80;;;3.33;;
11827;SDS011;5971;49.646;8.568;2023-06-19T14:58:59;4.90;;;3.05;;
11827;SDS011;5971;49.646;8.568;2023-06-19T15:02:00;4.10;;;3.42;;
11827;SDS011;5971;49.646;8.568;2023-06-19T15:05:04;3.60;;;3.08;;
11827;SDS011;5971;49.646;8.568;2023-06-19T15:08:07;4.95;;;3.53;;
11827;SDS011;5971;49.646;8.568;2023-06-19T15:11:11;4.20;;;3.33;;
11827;SDS011;5971;49.646;8.568;2023-06-19T15:14:12;4.85;;;3.60;;
11827;SDS011;5971;49.646;8.568;2023-06-19T15:17:13;5.28;;;3.40;;
11827;SDS011;5971;49.646;8.568;2023-06-19T15:20:15;5.03;;;3.60;;
11827;SDS011;5971;49.646;8.568;2023-06-19T15:23:19;4.30;;;3.40;;
11827;SDS011;5971;49.646;8.568;2023-06-19T15:26:20;5.15;;;3.17;;
11827;SDS011;5971;49.646;8.568;2023-06-19T15:29:22;4.88;;;3.28;;
11827;SDS011;5971;49.646;8.568;2023-06-19T15:32:23;5.13;;;3.40;;
11827;SDS011;5971;49.646;8.568;2023-06-19T15:35:25;5.03;;;3.45;;
11827;SDS011;5971;49.646;8.568;2023-06-19T15:38:26;5.95;;;3.75;;
11827;SDS011;5971;49.646;8.568;2023-06-19T15:41:28;4.60;;;3.53;;
11827;SDS011;5971;49.646;8.568;2023-06-19T15:44:30;5.22;;;3.47;;
11827;SDS011;5971;49.646;8.568;2023-06-19T15:47:31;4.70;;;3.17;;
11827;SDS011;5971;49.646;8.568;2023-06-19T15:50:35;4.82;;;3.33;;
11827;SDS011;5971;49.646;8.568;2023-06-19T15:53:37;4.65;;;3.90;;
11827;SDS011;5971;49.646;8.568;2023-06-19T15:56:38;4.35;;;3.10;;
11827;SDS011;5971;49.646;8.568;2023-06-19T15:59:40;4.80;;;3.35;;
11827;SDS011;5971;49.646;8.568;2023-06-19T16:02:41;5.30;;;3.58;;
11827;SDS011;5971;49.646;8.568;2023-06-19T16:05:48;4.47;;;3.60;;
11827;SDS011;5971;49.646;8.568;2023-06-19T16:09:07;4.88;;;3.72;;
11827;SDS011;5971;49.646;8.568;2023-06-19T16:12:09;4.97;;;4.25;;
11827;SDS011;5971;49.646;8.568;2023-06-19T16:15:10;4.47;;;3.67;;
11827;SDS011;5971;49.646;8.568;2023-06-19T16:18:15;4.70;;;3.83;;
11827;SDS011;5971;49.646;8.568;2023-06-19T16:21:17;5.10;;;3.65;;
11827;SDS011;5971;49.646;8.568;2023-06-19T16:24:18;6.07;;;3.53;;
11827;SDS011;5971;49.646;8.568;2023-06-19T16:27:20;6.45;;;3.97;;
11827;SDS011;5971;49.646;8.568;2023-06-19T16:30:23;6.28;;;4.00;;
11827;SDS011;5971;49.646;8.568;2023-06-19T16:33:24;5.68;;;4.05;;
11827;SDS011;5971;49.646;8.568;2023-06-19T16:36:26;5.45;;;4.10;;
11827;SDS011;5971;49.646;8.568;2023-06-19T16:39:28;4.93;;;3.60;;
11827;SDS011;5971;49.646;8.568;2023-06-19T16:42:29;4.78;;;3.60;;
11827;SDS011;5971;49.646;8.568;2023-06-19T16:45:31;5.95;;;3.90;;
11827;SDS011;5971;49.646;8.568;2023-06-19T16:48:32;5.45;;;3.47;;
11827;SDS011;5971;49.646;8.568;2023-06-19T16:51:34;4.35;;;3.42;;
11827;SDS011;5971;49.646;8.568;2023-06-19T16:54:35;5.30;;;3.78;;
11827;SDS011;5971;49.646;8.568;2023-06-19T16:57:36;5.03;;;3.28;;
11827;SDS011;5971;49.646;8.568;2023-06-19T17:00:38;4.45;;;3.65;;
11827;SDS011;5971;49.646;8.568;2023-06-19T17:03:39;4.75;;;3.63;;
11827;SDS011;5971;49.646;8.568;2023-06-19T17:06:41;6.70;;;4.00;;
11827;SDS011;5971;49.646;8.568;2023-06-19T17:09:42;5.18;;;3.92;;
11827;SDS011;5971;49.646;8.568;2023-06-19T17:12:44;4.60;;;3.67;;
11827;SDS011;5971;49.646;8.568;2023-06-19T17:15:46;5.32;;;4.03;;
11827;SDS011;5971;49.646;8.568;2023-06-19T17:18:47;5.60;;;4.25;;
11827;SDS011;5971;49.646;8.568;2023-06-19T17:21:49;4.68;;;3.45;;
11827;SDS011;5971;49.646;8.568;2023-06-19T17:24:50;4.65;;;3.47;;
11827;SDS011;5971;49.646;8.568;2023-06-19T17:27:52;4.95;;;3.60;;
11827;SDS011;5971;49.646;8.568;2023-06-19T17:30:53;5.05;;;4.00;;
11827;SDS011;5971;49.646;8.568;2023-06-19T17:33:55;4.78;;;3.58;;
11827;SDS011;5971;49.646;8.568;2023-06-19T17:36:56;6.43;;;3.72;;
11827;SDS011;5971;49.646;8.568;2023-06-19T17:39:57;5.30;;;4.20;;
11827;SDS011;5971;49.646;8.568;2023-06-19T17:42:59;5.10;;;3.83;;
11827;SDS011;5971;49.646;8.568;2023-06-19T17:46:00;5.43;;;3.83;;
11827;SDS011;5971;49.646;8.568;2023-06-19T17:49:01;4.82;;;3.95;;
11827;SDS011;5971;49.646;8.568;2023-06-19T17:52:03;5.80;;;4.85;;
11827;SDS011;5971;49.646;8.568;2023-06-19T17:55:08;5.03;;;3.72;;
11827;SDS011;5971;49.646;8.568;2023-06-19T17:58:10;4.97;;;3.65;;
11827;SDS011;5971;49.646;8.568;2023-06-19T18:01:11;4.95;;;3.97;;
11827;SDS011;5971;49.646;8.568;2023-06-19T18:04:12;6.55;;;4.25;;
11827;SDS011;5971;49.646;8.568;2023-06-19T18:07:14;5.75;;;3.55;;
11827;SDS011;5971;49.646;8.568;2023-06-19T18:10:16;5.18;;;3.70;;
11827;SDS011;5971;49.646;8.568;2023-06-19T18:13:18;5.32;;;4.22;;
11827;SDS011;5971;49.646;8.568;2023-06-19T18:16:19;5.53;;;3.95;;
11827;SDS011;5971;49.646;8.568;2023-06-19T18:19:21;5.20;;;3.70;;
11827;SDS011;5971;49.646;8.568;2023-06-19T18:22:22;5.63;;;3.83;;
11827;SDS011;5971;49.646;8.568;2023-06-19T18:25:24;5.78;;;3.70;;
11827;SDS011;5971;49.646;8.568;2023-06-19T18:28:25;5.10;;;3.60;;
11827;SDS011;5971;49.646;8.568;2023-06-19T18:31:26;5.55;;;3.72;;
11827;SDS011;5971;49.646;8.568;2023-06-19T18:34:28;5.88;;;4.32;;
11827;SDS011;5971;49.646;8.568;2023-06-19T18:37:29;5.93;;;3.83;;
11827;SDS011;5971;49.646;8.568;2023-06-19T18:40:30;5.35;;;3.58;;